createdAt,value
2024-05-09T00:00:35.589Z,3.80
2024-05-09T00:03:10.165Z,3.88
2024-05-09T00:05:38.609Z,2.80
2024-05-09T00:08:05.918Z,3.10
2024-05-09T00:10:37.086Z,3.80
2024-05-09T00:13:06.788Z,3.30
2024-05-09T00:15:34.327Z,3.13
2024-05-09T00:18:01.837Z,3.40
2024-05-09T00:20:36.789Z,3.78
2024-05-09T00:23:10.569Z,3.80
2024-05-09T00:25:38.038Z,3.65
2024-05-09T00:28:05.446Z,3.30
2024-05-09T00:30:35.390Z,3.53
2024-05-09T00:33:05.390Z,2.92
2024-05-09T00:35:33.141Z,4.05
2024-05-09T00:37:59.916Z,3.33
2024-05-09T00:40:37.278Z,2.13
2024-05-09T00:43:06.818Z,2.28
2024-05-09T00:45:34.197Z,2.35
2024-05-09T00:48:07.460Z,1.95
2024-05-09T00:50:37.934Z,2.28
2024-05-09T00:53:07.112Z,2.53
2024-05-09T00:55:35.405Z,1.63
2024-05-09T00:58:03.221Z,1.65
2024-05-09T01:03:07.135Z,1.95
2024-05-09T01:05:35.080Z,2.28
2024-05-09T01:08:02.592Z,3.03
2024-05-09T01:10:34.352Z,2.92
2024-05-09T01:13:03.618Z,2.28
2024-05-09T01:15:30.238Z,2.00
2024-05-09T01:17:57.688Z,2.58
2024-05-09T01:20:36.395Z,2.55
2024-05-09T01:23:09.019Z,2.33
2024-05-09T01:25:35.962Z,2.47
2024-05-09T01:28:02.542Z,2.83
2024-05-09T01:30:34.659Z,2.58
2024-05-09T01:33:04.446Z,2.95
2024-05-09T01:35:31.511Z,2.95
2024-05-09T01:37:58.094Z,2.65
2024-05-09T01:40:33.598Z,2.25
2024-05-09T01:43:05.014Z,3.30
2024-05-09T01:45:31.647Z,2.83
2024-05-09T01:47:58.682Z,2.63
2024-05-09T01:50:36.730Z,2.90
2024-05-09T01:53:07.012Z,2.90
2024-05-09T01:55:33.663Z,3.20
2024-05-09T01:58:00.245Z,3.72
2024-05-09T02:00:36.290Z,4.13
2024-05-09T02:03:10.047Z,3.20
2024-05-09T02:05:37.582Z,3.67
2024-05-09T02:08:05.528Z,3.95
2024-05-09T02:10:33.272Z,3.53
2024-05-09T02:13:00.343Z,2.92
2024-05-09T02:15:26.914Z,3.05
2024-05-09T02:17:53.734Z,3.35
2024-05-09T02:20:30.121Z,3.85
2024-05-09T02:23:04.158Z,4.03
2024-05-09T02:25:31.359Z,3.13
2024-05-09T02:27:57.910Z,3.20
2024-05-09T02:30:31.155Z,3.33
2024-05-09T02:33:05.828Z,3.22
2024-05-09T02:35:32.777Z,3.05
2024-05-09T02:37:59.636Z,3.58
2024-05-09T02:40:35.065Z,3.42
2024-05-09T02:43:04.266Z,3.08
2024-05-09T02:45:30.900Z,3.80
2024-05-09T02:47:57.880Z,4.30
2024-05-09T02:50:33.124Z,3.80
2024-05-09T02:53:04.386Z,2.97
2024-05-09T02:55:31.124Z,3.60
2024-05-09T02:57:57.673Z,2.70
2024-05-09T03:00:30.087Z,3.33
2024-05-09T03:03:05.681Z,2.92
2024-05-09T03:05:32.631Z,2.63
2024-05-09T03:07:59.388Z,1.67
2024-05-09T03:10:28.938Z,2.45
2024-05-09T03:13:05.232Z,2.35
2024-05-09T03:15:32.987Z,2.03
2024-05-09T03:18:00.775Z,1.80
2024-05-09T03:20:33.290Z,1.73
2024-05-09T03:23:02.172Z,1.80
2024-05-09T03:25:28.980Z,2.40
2024-05-09T03:27:55.566Z,2.13
2024-05-09T03:30:31.100Z,1.80
2024-05-09T03:33:13.799Z,1.88
2024-05-09T03:35:41.518Z,1.58
2024-05-09T03:38:08.392Z,1.48
2024-05-09T03:40:35.230Z,1.77
2024-05-09T03:43:01.801Z,2.10
2024-05-09T03:45:28.314Z,2.08
2024-05-09T03:47:55.115Z,1.92
2024-05-09T03:50:29.908Z,1.80
2024-05-09T03:53:01.276Z,2.55
2024-05-09T03:55:28.688Z,2.97
2024-05-09T03:57:55.390Z,3.25
2024-05-09T04:00:31.033Z,3.17
2024-05-09T04:03:06.060Z,3.25
2024-05-09T04:05:34.408Z,2.53
2024-05-09T04:08:01.435Z,2.00
2024-05-09T04:10:33.124Z,2.80
2024-05-09T04:13:01.331Z,3.28
2024-05-09T04:15:27.978Z,2.83
2024-05-09T04:17:54.756Z,3.85
2024-05-09T04:20:32.538Z,3.50
2024-05-09T04:23:06.202Z,3.15
2024-05-09T04:25:35.226Z,3.03
2024-05-09T04:28:01.767Z,3.50
2024-05-09T04:30:37.024Z,3.85
2024-05-09T04:33:08.283Z,3.55
2024-05-09T04:35:37.043Z,3.33
2024-05-09T04:38:04.102Z,3.53
2024-05-09T04:40:34.424Z,3.28
2024-05-09T04:43:04.105Z,2.92
2024-05-09T04:45:30.717Z,2.83
2024-05-09T04:47:57.842Z,2.47
2024-05-09T04:50:33.186Z,3.15
2024-05-09T04:53:04.075Z,1.95
2024-05-09T04:55:30.725Z,3.15
2024-05-09T04:57:57.304Z,2.95
2024-05-09T05:00:32.478Z,2.00
2024-05-09T05:03:06.979Z,3.75
2024-05-09T05:05:37.563Z,2.85
2024-05-09T05:08:04.981Z,2.70
2024-05-09T05:10:36.071Z,3.13
2024-05-09T05:13:21.228Z,3.42
2024-05-09T05:15:58.626Z,2.78
2024-05-09T05:18:27.521Z,4.03
2024-05-09T05:20:58.318Z,4.60
2024-05-09T05:23:25.142Z,3.67
2024-05-09T05:25:53.013Z,3.22
2024-05-09T05:28:19.992Z,4.00
2024-05-09T05:30:46.690Z,4.55
2024-05-09T05:33:14.576Z,5.00
2024-05-09T05:35:42.011Z,4.85
2024-05-09T05:38:09.738Z,5.10
2024-05-09T05:40:38.563Z,5.78
2024-05-09T05:43:08.366Z,6.22
2024-05-09T05:45:35.206Z,5.28
2024-05-09T05:48:06.140Z,6.82
2024-05-09T05:50:36.525Z,5.50
2024-05-09T05:53:10.092Z,5.20
2024-05-09T05:55:41.228Z,6.07
2024-05-09T05:58:11.553Z,6.25
2024-05-09T06:00:40.265Z,6.53
2024-05-09T06:03:09.305Z,6.60
2024-05-09T06:05:38.636Z,5.88
2024-05-09T06:08:05.847Z,6.05
2024-05-09T06:10:38.155Z,5.82
2024-05-09T06:13:07.444Z,6.72
2024-05-09T06:15:34.326Z,6.32
2024-05-09T06:18:01.362Z,6.95
2024-05-09T06:20:35.467Z,6.75
2024-05-09T06:23:08.047Z,6.65
2024-05-09T06:25:36.054Z,6.65
2024-05-09T06:28:03.099Z,7.15
2024-05-09T06:30:37.378Z,7.10
2024-05-09T06:33:08.276Z,7.13
2024-05-09T06:35:36.360Z,7.43
2024-05-09T06:38:03.100Z,9.35
2024-05-09T06:40:37.163Z,9.88
2024-05-09T06:43:15.054Z,10.88
2024-05-09T06:45:43.166Z,9.80
2024-05-09T06:48:10.391Z,9.82
2024-05-09T06:50:38.852Z,9.95
2024-05-09T06:53:09.682Z,9.20
2024-05-09T06:55:37.231Z,8.43
2024-05-09T06:58:06.031Z,8.52
2024-05-09T07:00:38.812Z,9.20
2024-05-09T07:03:09.296Z,8.73
2024-05-09T07:05:36.498Z,8.60
2024-05-09T07:08:04.271Z,8.70
2024-05-09T07:10:35.024Z,8.23
2024-05-09T07:13:02.616Z,8.90
2024-05-09T07:15:29.244Z,7.97
2024-05-09T07:17:56.083Z,7.75
2024-05-09T07:23:05.354Z,6.85
2024-05-09T07:25:32.026Z,7.93
2024-05-09T07:27:58.596Z,7.40
2024-05-09T07:30:32.689Z,7.00
2024-05-09T07:33:01.419Z,7.25
2024-05-09T07:35:28.668Z,8.55
2024-05-09T07:37:55.430Z,8.23
2024-05-09T07:40:31.569Z,6.28
2024-05-09T07:43:06.847Z,6.60
2024-05-09T07:52:23.257Z,6.70
2024-05-09T07:53:38.570Z,6.10
2024-05-09T07:56:07.357Z,6.05
2024-05-09T07:58:34.161Z,5.63
2024-05-09T08:01:02.578Z,6.68
2024-05-09T08:03:29.379Z,6.30
2024-05-09T08:05:56.130Z,6.88
2024-05-09T08:08:23.201Z,6.90
2024-05-09T08:10:50.817Z,5.60
2024-05-09T08:13:17.814Z,6.13
2024-05-09T08:15:44.561Z,6.88
2024-05-09T08:18:11.471Z,6.10
2024-05-09T08:23:05.074Z,6.38
2024-05-09T08:25:31.641Z,6.15
2024-05-09T08:27:58.388Z,5.70
2024-05-09T08:30:32.575Z,5.80
2024-05-09T08:33:04.276Z,6.25
2024-05-09T08:35:30.999Z,5.90
2024-05-09T08:37:57.684Z,6.28
2024-05-09T08:40:31.046Z,5.97
2024-05-09T08:43:02.807Z,5.60
2024-05-09T08:45:30.195Z,5.82
2024-05-09T08:48:00.165Z,5.63
2024-05-09T08:50:35.370Z,6.15
2024-05-09T08:53:05.490Z,6.35
2024-05-09T08:55:32.276Z,6.57
2024-05-09T09:00:35.826Z,4.93
2024-05-09T09:03:08.320Z,5.82
2024-05-09T09:05:38.999Z,6.32
2024-05-09T09:08:08.127Z,6.40
2024-05-09T09:10:35.749Z,6.30
2024-05-09T09:13:09.405Z,5.70
2024-05-09T09:15:47.163Z,5.45
2024-05-09T09:18:15.889Z,5.40
2024-05-09T09:20:42.890Z,5.70
2024-05-09T09:25:39.751Z,5.72
2024-05-09T09:28:07.549Z,5.53
2024-05-09T09:30:37.329Z,5.32
2024-05-09T09:33:11.886Z,5.50
2024-05-09T09:35:41.740Z,4.60
2024-05-09T09:38:10.253Z,5.20
2024-05-09T09:40:44.793Z,4.80
2024-05-09T09:43:20.636Z,5.53
2024-05-09T09:45:52.417Z,5.32
2024-05-09T09:48:20.268Z,5.40
2024-05-09T09:50:48.369Z,5.28
2024-05-09T09:53:16.590Z,5.05
2024-05-09T09:55:43.339Z,5.82
2024-05-09T10:00:41.264Z,5.05
2024-05-09T10:03:08.144Z,5.65
2024-05-09T10:05:35.607Z,6.05
2024-05-09T10:08:07.340Z,4.97
2024-05-09T10:10:36.543Z,6.00
2024-05-09T10:13:07.495Z,5.47
2024-05-09T10:15:48.120Z,5.57
2024-05-09T10:18:15.263Z,5.65
2024-05-09T10:20:45.982Z,5.28
2024-05-09T10:23:36.167Z,5.25
2024-05-09T10:26:05.102Z,5.68
2024-05-09T10:28:34.029Z,4.80
2024-05-09T10:31:11.616Z,4.95
2024-05-09T10:33:52.698Z,4.93
2024-05-09T10:36:20.775Z,5.30
2024-05-09T10:38:49.247Z,4.70
2024-05-09T10:41:20.118Z,5.05
2024-05-09T10:43:47.590Z,4.30
2024-05-09T10:46:14.822Z,4.57
2024-05-09T10:48:43.340Z,4.60
2024-05-09T10:51:10.431Z,4.70
2024-05-09T10:53:42.211Z,4.57
2024-05-09T10:56:09.276Z,4.82
2024-05-09T10:58:36.002Z,4.32
2024-05-09T11:01:06.252Z,5.45
2024-05-09T11:03:34.202Z,5.00
2024-05-09T11:06:01.485Z,4.22
2024-05-09T11:08:28.882Z,4.47
2024-05-09T11:10:56.283Z,4.78
2024-05-09T11:13:30.635Z,4.88
2024-05-09T11:15:57.849Z,4.75
2024-05-09T11:18:26.767Z,4.80
2024-05-09T11:20:55.836Z,4.93
2024-05-09T11:23:24.708Z,5.10
2024-05-09T11:25:55.820Z,4.50
2024-05-09T11:28:23.279Z,5.25
2024-05-09T11:30:52.060Z,4.63
2024-05-09T11:33:19.425Z,5.13
2024-05-09T11:35:46.981Z,4.15
2024-05-09T11:38:13.896Z,5.50
2024-05-09T11:40:40.823Z,5.05
2024-05-09T11:43:07.558Z,5.10
2024-05-09T11:45:34.299Z,5.07
2024-05-09T11:48:01.307Z,4.93
2024-05-09T11:50:32.849Z,4.95
2024-05-09T11:53:02.279Z,5.43
2024-05-09T11:55:29.078Z,5.53
2024-05-09T12:00:32.999Z,6.10
2024-05-09T12:03:05.200Z,5.40
2024-05-09T12:05:32.635Z,5.78
2024-05-09T12:07:59.611Z,5.50
2024-05-09T12:10:32.451Z,5.10
2024-05-09T12:13:01.852Z,5.97
2024-05-09T12:15:28.649Z,5.85
2024-05-09T12:17:58.184Z,5.53
2024-05-09T12:20:34.750Z,5.82
2024-05-09T12:23:04.436Z,5.70
2024-05-09T12:25:31.070Z,5.28
2024-05-09T12:27:57.759Z,4.97
2024-05-09T12:30:33.053Z,5.55
2024-05-09T12:33:04.781Z,5.25
2024-05-09T12:35:31.534Z,6.60
2024-05-09T12:37:58.074Z,5.45
2024-05-09T12:40:34.188Z,6.38
2024-05-09T12:43:04.201Z,5.43
2024-05-09T12:45:30.991Z,5.72
2024-05-09T12:47:57.744Z,5.57
2024-05-09T12:50:31.087Z,6.05
2024-05-09T12:52:59.560Z,5.90
2024-05-09T12:55:26.943Z,6.15
2024-05-09T12:57:53.811Z,5.60
2024-05-09T13:00:27.441Z,6.25
2024-05-09T13:02:58.268Z,6.72
2024-05-09T13:05:24.968Z,6.50
2024-05-09T13:10:28.656Z,6.00
2024-05-09T13:12:59.264Z,6.53
2024-05-09T13:15:25.994Z,6.13
2024-05-09T13:17:52.724Z,5.57
2024-05-09T13:23:01.712Z,5.47
2024-05-09T13:25:28.364Z,5.70
2024-05-09T13:27:55.941Z,6.20
2024-05-09T13:30:29.710Z,5.97
2024-05-09T13:33:06.352Z,5.57
2024-05-09T13:35:35.193Z,6.50
2024-05-09T13:38:02.615Z,6.20
2024-05-09T13:40:33.801Z,6.60
2024-05-09T13:43:03.131Z,6.65
2024-05-09T13:45:29.812Z,6.07
2024-05-09T13:47:56.821Z,5.78
2024-05-09T13:50:31.544Z,6.25
2024-05-09T13:53:02.218Z,6.07
2024-05-09T13:57:55.559Z,5.50
2024-05-09T14:03:08.840Z,6.35
2024-05-09T14:05:35.670Z,6.03
2024-05-09T14:08:02.298Z,6.63
2024-05-09T14:10:31.388Z,5.85
2024-05-09T14:12:58.978Z,7.03
2024-05-09T14:15:25.552Z,5.32
2024-05-09T14:17:52.190Z,6.07
2024-05-09T14:20:28.346Z,5.85
2024-05-09T14:22:58.468Z,6.45
2024-05-09T14:27:53.419Z,5.95
2024-05-09T14:30:29.615Z,6.03
2024-05-09T14:33:01.292Z,5.65
2024-05-09T14:37:54.449Z,6.00
2024-05-09T14:40:35.338Z,6.22
2024-05-09T14:43:07.372Z,5.78
2024-05-09T14:45:34.582Z,5.75
2024-05-09T14:48:01.569Z,5.85
2024-05-09T14:50:35.139Z,6.30
2024-05-09T14:53:05.924Z,6.68
2024-05-09T14:55:35.279Z,6.07
2024-05-09T14:58:03.107Z,7.00
2024-05-09T15:00:35.471Z,7.25
2024-05-09T15:05:30.354Z,6.80
2024-05-09T15:07:57.855Z,7.85
2024-05-09T15:10:33.622Z,8.18
2024-05-09T15:13:02.606Z,7.88
2024-05-09T15:15:29.309Z,7.80
2024-05-09T15:17:56.059Z,8.07
2024-05-09T15:23:02.023Z,7.53
2024-05-09T15:25:28.787Z,7.75
2024-05-09T15:27:55.553Z,8.32
2024-05-09T15:30:30.040Z,8.80
2024-05-09T15:32:59.200Z,8.05
2024-05-09T15:35:25.765Z,9.30
2024-05-09T15:37:52.388Z,9.50
2024-05-09T15:40:26.636Z,9.27
2024-05-09T15:43:02.433Z,9.75
2024-05-09T15:45:29.320Z,9.73
2024-05-09T15:50:35.176Z,9.32
2024-05-09T15:53:06.199Z,8.98
2024-05-09T15:55:33.510Z,9.23
2024-05-09T15:58:01.149Z,8.57
2024-05-09T16:00:36.492Z,8.95
2024-05-09T16:03:06.905Z,9.93
2024-05-09T16:08:00.654Z,8.82
2024-05-09T16:10:32.437Z,9.60
2024-05-09T16:13:01.072Z,10.45
2024-05-09T16:15:27.841Z,9.52
2024-05-09T16:17:55.283Z,9.82
2024-05-09T16:20:33.774Z,9.65
2024-05-09T16:23:05.973Z,9.65
2024-05-09T16:25:32.498Z,10.50
2024-05-09T16:27:59.479Z,9.98
2024-05-09T16:33:02.527Z,9.90
2024-05-09T16:35:29.416Z,9.98
2024-05-09T16:37:55.999Z,9.57
2024-05-09T16:40:30.229Z,8.73
2024-05-09T16:43:04.804Z,9.90
2024-05-09T16:45:31.924Z,9.55
2024-05-09T16:50:32.013Z,9.30
2024-05-09T16:53:00.620Z,8.68
2024-05-09T16:55:27.366Z,9.48
2024-05-09T16:57:54.652Z,9.52
2024-05-09T17:00:34.257Z,10.00
2024-05-09T17:03:07.180Z,10.13
2024-05-09T17:05:34.473Z,8.77
2024-05-09T17:08:01.568Z,9.55
2024-05-09T17:10:33.644Z,9.10
2024-05-09T17:13:02.570Z,10.32
2024-05-09T17:15:29.628Z,9.57
2024-05-09T17:17:56.438Z,8.60
2024-05-09T17:20:29.861Z,9.90
2024-05-09T17:23:02.292Z,8.85
2024-05-09T17:25:29.157Z,9.32
2024-05-09T17:27:56.045Z,8.93
2024-05-09T17:30:29.120Z,9.95
2024-05-09T17:33:02.312Z,8.95
2024-05-09T17:35:29.105Z,8.57
2024-05-09T17:37:56.527Z,9.77
2024-05-09T17:40:30.974Z,8.65
2024-05-09T17:43:01.601Z,8.50
2024-05-09T17:47:55.192Z,9.80
2024-05-09T17:53:01.024Z,8.02
2024-05-09T17:55:27.885Z,9.27
2024-05-09T17:57:54.568Z,8.40
2024-05-09T18:00:29.481Z,8.23
2024-05-09T18:03:04.475Z,8.85
2024-05-09T18:05:31.569Z,8.93
2024-05-09T18:07:58.469Z,9.18
2024-05-09T18:10:32.812Z,9.48
2024-05-09T18:13:03.645Z,9.30
2024-05-09T18:15:30.223Z,9.90
2024-05-09T18:17:56.947Z,9.02
2024-05-09T18:20:32.444Z,8.57
2024-05-09T18:23:07.109Z,9.18
2024-05-09T18:25:33.731Z,8.43
2024-05-09T18:28:02.293Z,8.63
2024-05-09T18:30:34.447Z,9.55
2024-05-09T18:35:29.803Z,8.68
2024-05-09T18:37:56.467Z,8.68
2024-05-09T18:40:31.297Z,8.70
2024-05-09T18:43:01.989Z,7.93
2024-05-09T18:45:29.031Z,8.68
2024-05-09T18:47:55.922Z,8.77
2024-05-09T18:50:31.858Z,9.35
2024-05-09T18:53:03.434Z,8.98
2024-05-09T18:55:29.955Z,8.07
2024-05-09T18:57:56.889Z,8.52
2024-05-09T19:00:33.008Z,8.95
2024-05-09T19:03:05.451Z,8.75
2024-05-09T19:05:33.218Z,8.52
2024-05-09T19:08:00.244Z,8.95
2024-05-09T19:10:33.685Z,9.70
2024-05-09T19:13:04.389Z,9.27
2024-05-09T19:15:34.596Z,8.63
2024-05-09T19:18:01.381Z,9.02
2024-05-09T19:20:33.420Z,9.52
2024-05-09T19:23:01.578Z,9.65
2024-05-09T19:25:28.085Z,9.75
2024-05-09T19:27:54.713Z,9.82
2024-05-09T19:30:29.903Z,10.55
2024-05-09T19:33:04.671Z,9.63
2024-05-09T19:35:31.458Z,9.88
2024-05-09T19:37:58.538Z,9.98
2024-05-09T19:40:31.251Z,9.45
2024-05-09T19:43:00.127Z,9.25
2024-05-09T19:45:26.743Z,9.45
2024-05-09T19:47:53.651Z,10.23
2024-05-09T19:50:27.038Z,10.95
2024-05-09T19:53:02.632Z,9.05
2024-05-09T19:55:29.231Z,10.65
2024-05-09T19:57:55.844Z,10.07
2024-05-09T20:00:29.208Z,10.60
2024-05-09T20:03:01.866Z,11.80
2024-05-09T20:05:30.756Z,10.80
2024-05-09T20:07:57.656Z,10.55
2024-05-09T20:10:29.789Z,10.75
2024-05-09T20:12:59.337Z,10.88
2024-05-09T20:15:25.979Z,11.70
2024-05-09T20:17:52.614Z,10.85
2024-05-09T20:20:28.380Z,11.57
2024-05-09T20:23:02.902Z,11.27
2024-05-09T20:25:29.544Z,11.25
2024-05-09T20:27:56.128Z,10.80
2024-05-09T20:30:29.003Z,11.48
2024-05-09T20:32:59.838Z,12.48
2024-05-09T20:35:26.762Z,13.25
2024-05-09T20:37:53.398Z,12.50
2024-05-09T20:40:28.273Z,11.98
2024-05-09T20:42:59.203Z,11.65
2024-05-09T20:47:52.702Z,12.27
2024-05-09T20:50:28.167Z,11.48
2024-05-09T20:53:02.776Z,11.90
2024-05-09T20:55:30.024Z,11.38
2024-05-09T20:57:57.460Z,11.95
2024-05-09T21:00:33.719Z,11.27
2024-05-09T21:03:06.493Z,11.93
2024-05-09T21:05:34.113Z,12.90
2024-05-09T21:08:01.304Z,12.60
2024-05-09T21:10:32.278Z,13.40
2024-05-09T21:13:00.346Z,13.25
2024-05-09T21:15:26.916Z,11.73
2024-05-09T21:17:53.520Z,11.63
2024-05-09T21:20:24.401Z,12.95
2024-05-09T21:22:57.724Z,11.75
2024-05-09T21:25:24.367Z,11.80
2024-05-09T21:27:51.264Z,11.90
2024-05-09T21:30:26.812Z,12.45
2024-05-09T21:35:25.338Z,13.40
2024-05-09T21:37:51.903Z,12.27
2024-05-09T21:40:27.021Z,12.77
2024-05-09T21:43:00.238Z,11.63
2024-05-09T21:45:27.169Z,12.25
2024-05-09T21:47:53.806Z,12.23
2024-05-09T21:50:27.564Z,14.77
2024-05-09T21:52:58.819Z,13.02
2024-05-09T21:55:25.456Z,11.57
2024-05-09T21:57:52.124Z,12.38
2024-05-09T22:00:28.632Z,11.88
2024-05-09T22:03:02.134Z,12.07
2024-05-09T22:05:29.057Z,10.95
2024-05-09T22:07:55.772Z,12.45
2024-05-09T22:10:26.554Z,11.25
2024-05-09T22:12:59.122Z,13.15
2024-05-09T22:15:25.850Z,12.63
2024-05-09T22:17:52.587Z,11.65
2024-05-09T22:20:26.018Z,12.82
2024-05-09T22:23:00.605Z,13.48
2024-05-09T22:25:29.694Z,12.63
2024-05-09T22:27:57.043Z,12.02
2024-05-09T22:30:31.184Z,9.43
2024-05-09T22:33:01.947Z,12.02
2024-05-09T22:35:28.516Z,13.15
2024-05-09T22:37:55.356Z,13.30
2024-05-09T22:40:29.527Z,11.93
2024-05-09T22:43:06.011Z,12.05
2024-05-09T22:47:59.781Z,11.15
2024-05-09T22:50:30.546Z,11.27
2024-05-09T22:52:59.125Z,8.30
2024-05-09T22:55:25.642Z,8.95
2024-05-09T22:57:52.259Z,12.18
2024-05-09T23:00:21.834Z,11.05
2024-05-09T23:02:52.862Z,11.40
2024-05-09T23:05:19.632Z,11.10
2024-05-09T23:07:46.270Z,11.73
2024-05-09T23:10:17.381Z,11.13
2024-05-09T23:12:51.519Z,11.68
2024-05-09T23:15:18.141Z,11.25
2024-05-09T23:17:45.037Z,10.60
2024-05-09T23:20:14.503Z,7.47
2024-05-09T23:22:41.210Z,8.52
2024-05-09T23:25:07.805Z,8.75
2024-05-09T23:27:34.608Z,9.05
2024-05-09T23:30:01.224Z,10.05
2024-05-09T23:32:27.859Z,9.80
2024-05-09T23:34:54.492Z,8.82
2024-05-09T23:37:21.164Z,8.30
2024-05-09T23:39:47.781Z,9.25
2024-05-09T23:42:14.454Z,9.38
2024-05-09T23:44:41.033Z,9.25
2024-05-09T23:47:10.659Z,9.52
2024-05-09T23:49:37.518Z,10.20
2024-05-09T23:52:05.144Z,8.55
2024-05-09T23:56:58.141Z,5.32
2024-05-09T23:59:24.673Z,5.90
